sensor_id;sensor_type;location;lat;lon;timestamp;temperature;humidity
13470;DHT22;6807;48.682;9.032;2023-05-10T00:00:28;12.60;99.90
13470;DHT22;6807;48.682;9.032;2023-05-10T00:02:55;12.60;99.90
13470;DHT22;6807;48.682;9.032;2023-05-10T00:05:23;12.60;99.90
13470;DHT22;6807;48.682;9.032;2023-05-10T00:07:50;12.60;99.90
13470;DHT22;6807;48.682;9.032;2023-05-10T00:10:17;12.60;99.90
13470;DHT22;6807;48.682;9.032;2023-05-10T00:12:44;12.60;99.90
13470;DHT22;6807;48.682;9.032;2023-05-10T00:15:11;12.70;1.00
13470;DHT22;6807;48.682;9.032;2023-05-10T00:17:39;12.70;1.00
13470;DHT22;6807;48.682;9.032;2023-05-10T00:20:07;12.70;1.00
13470;DHT22;6807;48.682;9.032;2023-05-10T00:22:34;12.70;99.90
13470;DHT22;6807;48.682;9.032;2023-05-10T00:25:01;12.60;99.90
13470;DHT22;6807;48.682;9.032;2023-05-10T00:27:28;12.50;99.90
13470;DHT22;6807;48.682;9.032;2023-05-10T00:29:56;12.50;99.90
13470;DHT22;6807;48.682;9.032;2023-05-10T00:32:23;12.40;99.90
13470;DHT22;6807;48.682;9.032;2023-05-10T00:34:51;12.30;98.40
13470;DHT22;6807;48.682;9.032;2023-05-10T00:37:18;12.20;99.90
13470;DHT22;6807;48.682;9.032;2023-05-10T00:39:46;12.10;1.00
13470;DHT22;6807;48.682;9.032;2023-05-10T00:42:13;12.20;99.90
13470;DHT22;6807;48.682;9.032;2023-05-10T00:44:40;12.10;42.80
13470;DHT22;6807;48.682;9.032;2023-05-10T00:47:07;12.10;93.60
13470;DHT22;6807;48.682;9.032;2023-05-10T00:49:35;12.10;99.90
13470;DHT22;6807;48.682;9.032;2023-05-10T00:52:04;12.00;99.90
13470;DHT22;6807;48.682;9.032;2023-05-10T00:54:31;12.00;94.00
13470;DHT22;6807;48.682;9.032;2023-05-10T00:56:58;12.00;37.90
13470;DHT22;6807;48.682;9.032;2023-05-10T00:59:26;11.90;76.80
13470;DHT22;6807;48.682;9.032;2023-05-10T01:01:53;11.90;97.00
13470;DHT22;6807;48.682;9.032;2023-05-10T01:04:20;11.90;99.90
13470;DHT22;6807;48.682;9.032;2023-05-10T01:06:51;11.90;67.00
13470;DHT22;6807;48.682;9.032;2023-05-10T01:09:21;11.90;92.90
13470;DHT22;6807;48.682;9.032;2023-05-10T01:11:49;11.90;99.90
13470;DHT22;6807;48.682;9.032;2023-05-10T01:14:18;12.00;99.90
13470;DHT22;6807;48.682;9.032;2023-05-10T01:16:47;11.90;99.90
13470;DHT22;6807;48.682;9.032;2023-05-10T01:19:19;11.90;99.90
13470;DHT22;6807;48.682;9.032;2023-05-10T01:21:52;11.90;99.90
13470;DHT22;6807;48.682;9.032;2023-05-10T01:24:46;12.00;99.90
13470;DHT22;6807;48.682;9.032;2023-05-10T01:30:50;11.90;86.90
13470;DHT22;6807;48.682;9.032;2023-05-10T01:33:25;11.90;99.90
13470;DHT22;6807;48.682;9.032;2023-05-10T01:36:00;11.90;99.90
13470;DHT22;6807;48.682;9.032;2023-05-10T01:38:36;11.90;99.90
13470;DHT22;6807;48.682;9.032;2023-05-10T01:41:11;11.80;99.90
13470;DHT22;6807;48.682;9.032;2023-05-10T01:43:44;11.80;99.90
13470;DHT22;6807;48.682;9.032;2023-05-10T01:46:17;11.80;99.90
13470;DHT22;6807;48.682;9.032;2023-05-10T01:48:51;11.80;20.20
13470;DHT22;6807;48.682;9.032;2023-05-10T01:51:23;11.80;19.20
13470;DHT22;6807;48.682;9.032;2023-05-10T01:53:56;11.80;1.00
13470;DHT22;6807;48.682;9.032;2023-05-10T01:56:26;11.70;1.00
13470;DHT22;6807;48.682;9.032;2023-05-10T01:58:54;11.70;45.80
13470;DHT22;6807;48.682;9.032;2023-05-10T02:01:22;11.70;36.30
13470;DHT22;6807;48.682;9.032;2023-05-10T02:03:54;11.80;99.90
13470;DHT22;6807;48.682;9.032;2023-05-10T02:06:23;11.70;99.90
13470;DHT22;6807;48.682;9.032;2023-05-10T02:08:51;11.70;99.90
13470;DHT22;6807;48.682;9.032;2023-05-10T02:11:20;11.70;87.70
13470;DHT22;6807;48.682;9.032;2023-05-10T02:13:49;11.60;8.30
13470;DHT22;6807;48.682;9.032;2023-05-10T02:16:18;11.70;1.00
13470;DHT22;6807;48.682;9.032;2023-05-10T02:18:51;11.70;1.00
13470;DHT22;6807;48.682;9.032;2023-05-10T02:21:20;11.70;1.00
13470;DHT22;6807;48.682;9.032;2023-05-10T02:23:50;11.70;1.00
13470;DHT22;6807;48.682;9.032;2023-05-10T02:26:20;11.60;1.00
13470;DHT22;6807;48.682;9.032;2023-05-10T02:28:49;11.60;1.00
13470;DHT22;6807;48.682;9.032;2023-05-10T02:31:17;11.60;1.00
13470;DHT22;6807;48.682;9.032;2023-05-10T02:33:46;11.50;1.00
13470;DHT22;6807;48.682;9.032;2023-05-10T02:36:16;11.50;1.00
13470;DHT22;6807;48.682;9.032;2023-05-10T02:38:44;11.50;1.00
13470;DHT22;6807;48.682;9.032;2023-05-10T02:41:12;11.40;15.20
13470;DHT22;6807;48.682;9.032;2023-05-10T02:43:40;11.40;71.20
13470;DHT22;6807;48.682;9.032;2023-05-10T02:46:08;11.40;80.30
13470;DHT22;6807;48.682;9.032;2023-05-10T02:48:35;11.40;1.00
13470;DHT22;6807;48.682;9.032;2023-05-10T02:51:06;11.50;84.80
13470;DHT22;6807;48.682;9.032;2023-05-10T02:53:36;11.40;1.00
13470;DHT22;6807;48.682;9.032;2023-05-10T02:56:10;11.40;1.30
13470;DHT22;6807;48.682;9.032;2023-05-10T02:58:39;11.50;20.00
13470;DHT22;6807;48.682;9.032;2023-05-10T03:01:06;11.50;98.00
13470;DHT22;6807;48.682;9.032;2023-05-10T03:03:34;11.50;88.10
13470;DHT22;6807;48.682;9.032;2023-05-10T03:06:03;11.50;1.00
13470;DHT22;6807;48.682;9.032;2023-05-10T03:08:31;11.50;1.00
13470;DHT22;6807;48.682;9.032;2023-05-10T03:11:14;11.50;1.00
13470;DHT22;6807;48.682;9.032;2023-05-10T03:13:52;11.50;1.00
13470;DHT22;6807;48.682;9.032;2023-05-10T03:16:29;11.50;1.00
13470;DHT22;6807;48.682;9.032;2023-05-10T03:19:06;11.50;1.00
13470;DHT22;6807;48.682;9.032;2023-05-10T03:21:38;11.50;1.00
13470;DHT22;6807;48.682;9.032;2023-05-10T03:24:09;11.50;1.00
13470;DHT22;6807;48.682;9.032;2023-05-10T03:26:43;11.50;1.00
13470;DHT22;6807;48.682;9.032;2023-05-10T03:29:14;11.50;1.00
13470;DHT22;6807;48.682;9.032;2023-05-10T03:31:42;11.50;1.00
13470;DHT22;6807;48.682;9.032;2023-05-10T03:34:09;11.50;1.00
13470;DHT22;6807;48.682;9.032;2023-05-10T03:36:38;11.40;1.00
13470;DHT22;6807;48.682;9.032;2023-05-10T03:39:05;11.40;1.00
13470;DHT22;6807;48.682;9.032;2023-05-10T03:41:32;11.40;1.00
13470;DHT22;6807;48.682;9.032;2023-05-10T03:44:00;11.40;1.00
13470;DHT22;6807;48.682;9.032;2023-05-10T03:46:27;11.40;1.00
13470;DHT22;6807;48.682;9.032;2023-05-10T03:48:54;11.50;1.00
13470;DHT22;6807;48.682;9.032;2023-05-10T03:51:21;11.50;35.80
13470;DHT22;6807;48.682;9.032;2023-05-10T03:53:49;11.50;82.70
13470;DHT22;6807;48.682;9.032;2023-05-10T03:56:16;11.40;1.00
13470;DHT22;6807;48.682;9.032;2023-05-10T03:58:44;11.40;81.30
13470;DHT22;6807;48.682;9.032;2023-05-10T04:01:12;11.30;99.90
13470;DHT22;6807;48.682;9.032;2023-05-10T04:03:39;11.30;99.90
13470;DHT22;6807;48.682;9.032;2023-05-10T04:06:06;11.30;99.90
13470;DHT22;6807;48.682;9.032;2023-05-10T04:08:34;11.30;99.90
13470;DHT22;6807;48.682;9.032;2023-05-10T04:11:05;11.20;99.90
13470;DHT22;6807;48.682;9.032;2023-05-10T04:13:33;11.20;99.90
13470;DHT22;6807;48.682;9.032;2023-05-10T04:16:00;11.20;99.90
13470;DHT22;6807;48.682;9.032;2023-05-10T04:18:28;11.30;99.90
13470;DHT22;6807;48.682;9.032;2023-05-10T04:20:56;11.30;99.90
13470;DHT22;6807;48.682;9.032;2023-05-10T04:23:23;11.30;99.90
13470;DHT22;6807;48.682;9.032;2023-05-10T04:25:50;11.40;99.90
13470;DHT22;6807;48.682;9.032;2023-05-10T04:28:17;11.40;99.90
13470;DHT22;6807;48.682;9.032;2023-05-10T04:30:44;11.40;99.90
13470;DHT22;6807;48.682;9.032;2023-05-10T04:33:11;11.40;99.90
13470;DHT22;6807;48.682;9.032;2023-05-10T04:35:40;11.40;99.90
13470;DHT22;6807;48.682;9.032;2023-05-10T04:38:07;11.40;99.90
13470;DHT22;6807;48.682;9.032;2023-05-10T04:40:34;11.40;99.90
13470;DHT22;6807;48.682;9.032;2023-05-10T04:43:01;11.50;99.90
13470;DHT22;6807;48.682;9.032;2023-05-10T04:45:28;11.50;98.50
13470;DHT22;6807;48.682;9.032;2023-05-10T04:47:56;11.50;42.40
13470;DHT22;6807;48.682;9.032;2023-05-10T04:50:23;11.50;1.00
13470;DHT22;6807;48.682;9.032;2023-05-10T04:52:51;11.50;3.40
13470;DHT22;6807;48.682;9.032;2023-05-10T04:55:18;11.60;1.00
13470;DHT22;6807;48.682;9.032;2023-05-10T04:57:45;11.60;1.00
13470;DHT22;6807;48.682;9.032;2023-05-10T05:00:13;11.60;1.00
13470;DHT22;6807;48.682;9.032;2023-05-10T05:02:42;11.70;1.00
13470;DHT22;6807;48.682;9.032;2023-05-10T05:05:10;11.70;1.00
13470;DHT22;6807;48.682;9.032;2023-05-10T05:07:38;11.80;1.00
13470;DHT22;6807;48.682;9.032;2023-05-10T05:10:08;11.80;1.00
13470;DHT22;6807;48.682;9.032;2023-05-10T05:12:35;11.80;1.00
13470;DHT22;6807;48.682;9.032;2023-05-10T05:15:02;11.90;1.00
13470;DHT22;6807;48.682;9.032;2023-05-10T05:17:30;11.90;1.00
13470;DHT22;6807;48.682;9.032;2023-05-10T05:19:57;11.90;1.00
13470;DHT22;6807;48.682;9.032;2023-05-10T05:22:25;11.90;1.00
13470;DHT22;6807;48.682;9.032;2023-05-10T05:24:53;11.90;1.00
13470;DHT22;6807;48.682;9.032;2023-05-10T05:27:22;11.90;1.00
13470;DHT22;6807;48.682;9.032;2023-05-10T05:29:50;11.90;1.00
13470;DHT22;6807;48.682;9.032;2023-05-10T05:32:17;11.90;1.00
13470;DHT22;6807;48.682;9.032;2023-05-10T05:34:44;12.00;1.00
13470;DHT22;6807;48.682;9.032;2023-05-10T05:37:13;12.10;1.00
13470;DHT22;6807;48.682;9.032;2023-05-10T05:39:41;12.10;1.00
13470;DHT22;6807;48.682;9.032;2023-05-10T05:42:08;12.10;1.00
13470;DHT22;6807;48.682;9.032;2023-05-10T05:44:37;12.10;1.00
13470;DHT22;6807;48.682;9.032;2023-05-10T05:47:05;12.20;1.00
13470;DHT22;6807;48.682;9.032;2023-05-10T05:49:32;12.30;1.00
13470;DHT22;6807;48.682;9.032;2023-05-10T05:51:59;12.40;1.00
13470;DHT22;6807;48.682;9.032;2023-05-10T05:54:27;12.30;99.90
13470;DHT22;6807;48.682;9.032;2023-05-10T05:56:54;12.40;99.90
13470;DHT22;6807;48.682;9.032;2023-05-10T05:59:22;12.40;99.90
13470;DHT22;6807;48.682;9.032;2023-05-10T06:01:51;12.50;99.90
13470;DHT22;6807;48.682;9.032;2023-05-10T06:04:18;12.60;99.90
13470;DHT22;6807;48.682;9.032;2023-05-10T06:06:45;12.70;99.90
13470;DHT22;6807;48.682;9.032;2023-05-10T06:09:12;12.60;99.90
13470;DHT22;6807;48.682;9.032;2023-05-10T06:11:40;12.70;99.90
13470;DHT22;6807;48.682;9.032;2023-05-10T06:14:07;12.60;99.90
13470;DHT22;6807;48.682;9.032;2023-05-10T06:16:34;12.70;99.90
13470;DHT22;6807;48.682;9.032;2023-05-10T06:19:02;12.60;99.90
13470;DHT22;6807;48.682;9.032;2023-05-10T06:21:29;12.70;99.90
13470;DHT22;6807;48.682;9.032;2023-05-10T06:23:57;12.70;99.90
13470;DHT22;6807;48.682;9.032;2023-05-10T06:26:26;12.70;99.90
13470;DHT22;6807;48.682;9.032;2023-05-10T06:28:53;12.80;99.90
13470;DHT22;6807;48.682;9.032;2023-05-10T06:31:20;12.80;99.90
13470;DHT22;6807;48.682;9.032;2023-05-10T06:33:47;12.80;99.90
13470;DHT22;6807;48.682;9.032;2023-05-10T06:36:16;12.70;99.90
13470;DHT22;6807;48.682;9.032;2023-05-10T06:38:43;12.70;99.90
13470;DHT22;6807;48.682;9.032;2023-05-10T06:41:10;12.70;99.90
13470;DHT22;6807;48.682;9.032;2023-05-10T06:43:37;12.70;99.90
13470;DHT22;6807;48.682;9.032;2023-05-10T06:46:05;12.70;99.90
13470;DHT22;6807;48.682;9.032;2023-05-10T06:48:33;12.80;99.90
13470;DHT22;6807;48.682;9.032;2023-05-10T06:51:00;12.90;99.90
13470;DHT22;6807;48.682;9.032;2023-05-10T06:53:29;13.00;99.90
13470;DHT22;6807;48.682;9.032;2023-05-10T06:55:56;13.10;99.90
13470;DHT22;6807;48.682;9.032;2023-05-10T06:58:23;13.10;99.90
13470;DHT22;6807;48.682;9.032;2023-05-10T07:00:50;13.20;99.90
13470;DHT22;6807;48.682;9.032;2023-05-10T07:03:17;13.30;43.20
13470;DHT22;6807;48.682;9.032;2023-05-10T07:05:45;13.40;64.00
13470;DHT22;6807;48.682;9.032;2023-05-10T07:08:12;13.40;20.70
13470;DHT22;6807;48.682;9.032;2023-05-10T07:10:41;13.30;1.00
13470;DHT22;6807;48.682;9.032;2023-05-10T07:13:08;13.50;21.70
13470;DHT22;6807;48.682;9.032;2023-05-10T07:15:36;13.70;1.00
13470;DHT22;6807;48.682;9.032;2023-05-10T07:18:04;13.60;1.00
13470;DHT22;6807;48.682;9.032;2023-05-10T07:20:31;13.90;1.00
13470;DHT22;6807;48.682;9.032;2023-05-10T07:22:59;13.80;1.00
13470;DHT22;6807;48.682;9.032;2023-05-10T07:25:26;13.80;1.00
13470;DHT22;6807;48.682;9.032;2023-05-10T07:27:54;13.70;1.00
13470;DHT22;6807;48.682;9.032;2023-05-10T07:30:22;13.70;1.00
13470;DHT22;6807;48.682;9.032;2023-05-10T07:32:49;13.80;1.00
13470;DHT22;6807;48.682;9.032;2023-05-10T07:35:16;13.90;1.00
13470;DHT22;6807;48.682;9.032;2023-05-10T07:37:43;13.90;1.00
13470;DHT22;6807;48.682;9.032;2023-05-10T07:40:11;13.90;1.00
13470;DHT22;6807;48.682;9.032;2023-05-10T07:42:38;13.90;1.00
13470;DHT22;6807;48.682;9.032;2023-05-10T07:45:07;14.00;1.00
13470;DHT22;6807;48.682;9.032;2023-05-10T07:47:34;14.10;99.90
13470;DHT22;6807;48.682;9.032;2023-05-10T07:50:02;14.10;1.00
13470;DHT22;6807;48.682;9.032;2023-05-10T07:52:29;14.10;99.90
13470;DHT22;6807;48.682;9.032;2023-05-10T07:54:56;14.30;1.00
13470;DHT22;6807;48.682;9.032;2023-05-10T07:57:23;14.30;99.90
13470;DHT22;6807;48.682;9.032;2023-05-10T07:59:50;14.20;99.90
13470;DHT22;6807;48.682;9.032;2023-05-10T08:02:18;14.20;99.90
13470;DHT22;6807;48.682;9.032;2023-05-10T08:04:45;14.20;99.90
13470;DHT22;6807;48.682;9.032;2023-05-10T08:07:12;14.30;99.90
13470;DHT22;6807;48.682;9.032;2023-05-10T08:09:40;14.50;99.90
13470;DHT22;6807;48.682;9.032;2023-05-10T08:12:07;14.30;99.90
13470;DHT22;6807;48.682;9.032;2023-05-10T08:14:34;14.50;99.90
13470;DHT22;6807;48.682;9.032;2023-05-10T08:17:02;14.50;99.90
13470;DHT22;6807;48.682;9.032;2023-05-10T08:19:30;14.60;1.00
13470;DHT22;6807;48.682;9.032;2023-05-10T08:21:57;14.70;99.90
13470;DHT22;6807;48.682;9.032;2023-05-10T08:24:24;14.70;1.00
13470;DHT22;6807;48.682;9.032;2023-05-10T08:26:52;14.70;1.00
13470;DHT22;6807;48.682;9.032;2023-05-10T08:29:19;14.80;99.90
13470;DHT22;6807;48.682;9.032;2023-05-10T08:31:46;14.80;1.00
13470;DHT22;6807;48.682;9.032;2023-05-10T08:34:13;14.90;1.00
13470;DHT22;6807;48.682;9.032;2023-05-10T08:36:42;14.60;99.90
13470;DHT22;6807;48.682;9.032;2023-05-10T08:39:09;14.40;1.00
13470;DHT22;6807;48.682;9.032;2023-05-10T08:41:39;14.20;1.00
13470;DHT22;6807;48.682;9.032;2023-05-10T08:44:08;14.20;1.00
13470;DHT22;6807;48.682;9.032;2023-05-10T08:46:37;14.50;1.00
13470;DHT22;6807;48.682;9.032;2023-05-10T08:49:06;14.90;1.00
13470;DHT22;6807;48.682;9.032;2023-05-10T08:51:36;15.00;99.90
13470;DHT22;6807;48.682;9.032;2023-05-10T08:54:08;15.00;99.90
13470;DHT22;6807;48.682;9.032;2023-05-10T08:56:36;15.00;99.90
13470;DHT22;6807;48.682;9.032;2023-05-10T08:59:03;14.80;99.90
13470;DHT22;6807;48.682;9.032;2023-05-10T09:01:31;15.00;99.90
13470;DHT22;6807;48.682;9.032;2023-05-10T09:03:59;14.90;99.90
13470;DHT22;6807;48.682;9.032;2023-05-10T09:06:26;15.20;1.00
13470;DHT22;6807;48.682;9.032;2023-05-10T09:08:54;15.00;99.90
13470;DHT22;6807;48.682;9.032;2023-05-10T09:11:24;14.90;99.90
13470;DHT22;6807;48.682;9.032;2023-05-10T09:13:51;14.70;99.90
13470;DHT22;6807;48.682;9.032;2023-05-10T09:16:19;14.80;99.90
13470;DHT22;6807;48.682;9.032;2023-05-10T09:18:46;15.00;99.90
13470;DHT22;6807;48.682;9.032;2023-05-10T09:21:13;14.90;99.90
13470;DHT22;6807;48.682;9.032;2023-05-10T09:23:43;14.70;99.90
13470;DHT22;6807;48.682;9.032;2023-05-10T09:26:11;14.60;99.90
13470;DHT22;6807;48.682;9.032;2023-05-10T09:28:52;14.50;99.90
13470;DHT22;6807;48.682;9.032;2023-05-10T09:31:19;14.60;99.90
13470;DHT22;6807;48.682;9.032;2023-05-10T09:33:46;14.80;99.90
13470;DHT22;6807;48.682;9.032;2023-05-10T09:36:14;15.00;99.90
13470;DHT22;6807;48.682;9.032;2023-05-10T09:38:46;15.10;99.90
13470;DHT22;6807;48.682;9.032;2023-05-10T09:41:17;15.30;99.90
13470;DHT22;6807;48.682;9.032;2023-05-10T09:43:44;15.90;99.90
13470;DHT22;6807;48.682;9.032;2023-05-10T09:46:13;16.20;99.90
13470;DHT22;6807;48.682;9.032;2023-05-10T09:48:43;16.40;64.20
13470;DHT22;6807;48.682;9.032;2023-05-10T09:51:10;16.80;12.50
13470;DHT22;6807;48.682;9.032;2023-05-10T09:53:37;16.70;9.30
13470;DHT22;6807;48.682;9.032;2023-05-10T09:56:04;16.70;1.00
13470;DHT22;6807;48.682;9.032;2023-05-10T09:58:36;16.50;1.00
13470;DHT22;6807;48.682;9.032;2023-05-10T10:01:04;17.20;32.50
13470;DHT22;6807;48.682;9.032;2023-05-10T10:03:33;17.60;1.00
13470;DHT22;6807;48.682;9.032;2023-05-10T10:06:00;17.30;1.00
13470;DHT22;6807;48.682;9.032;2023-05-10T10:08:27;17.60;1.00
13470;DHT22;6807;48.682;9.032;2023-05-10T10:10:55;18.00;1.00
13470;DHT22;6807;48.682;9.032;2023-05-10T10:13:22;18.10;1.00
13470;DHT22;6807;48.682;9.032;2023-05-10T10:16:08;18.00;1.00
13470;DHT22;6807;48.682;9.032;2023-05-10T10:18:55;18.10;1.00
13470;DHT22;6807;48.682;9.032;2023-05-10T10:21:23;18.70;1.00
13470;DHT22;6807;48.682;9.032;2023-05-10T10:23:51;18.50;1.00
13470;DHT22;6807;48.682;9.032;2023-05-10T10:26:21;17.80;1.00
13470;DHT22;6807;48.682;9.032;2023-05-10T10:28:56;18.50;1.00
13470;DHT22;6807;48.682;9.032;2023-05-10T10:31:34;18.40;1.00
13470;DHT22;6807;48.682;9.032;2023-05-10T10:34:09;18.00;1.00
13470;DHT22;6807;48.682;9.032;2023-05-10T10:36:44;17.90;1.00
13470;DHT22;6807;48.682;9.032;2023-05-10T10:39:17;17.60;1.00
13470;DHT22;6807;48.682;9.032;2023-05-10T10:42:14;17.40;1.00
13470;DHT22;6807;48.682;9.032;2023-05-10T10:45:26;16.90;1.00
13470;DHT22;6807;48.682;9.032;2023-05-10T10:48:20;16.10;1.00
13470;DHT22;6807;48.682;9.032;2023-05-10T10:50:56;15.30;1.00
13470;DHT22;6807;48.682;9.032;2023-05-10T10:56:35;13.00;1.00
13470;DHT22;6807;48.682;9.032;2023-05-10T10:59:02;12.40;1.00
13470;DHT22;6807;48.682;9.032;2023-05-10T11:01:33;13.50;1.00
13470;DHT22;6807;48.682;9.032;2023-05-10T11:04:19;13.40;1.00
13470;DHT22;6807;48.682;9.032;2023-05-10T11:06:48;13.60;7.10
13470;DHT22;6807;48.682;9.032;2023-05-10T11:09:18;13.90;1.00
13470;DHT22;6807;48.682;9.032;2023-05-10T11:11:52;14.30;19.40
13470;DHT22;6807;48.682;9.032;2023-05-10T11:14:41;13.90;4.50
13470;DHT22;6807;48.682;9.032;2023-05-10T11:17:22;14.00;1.00
13470;DHT22;6807;48.682;9.032;2023-05-10T11:20:13;14.10;14.20
13470;DHT22;6807;48.682;9.032;2023-05-10T11:26:12;14.50;8.90
13470;DHT22;6807;48.682;9.032;2023-05-10T11:28:41;14.70;1.00
13470;DHT22;6807;48.682;9.032;2023-05-10T11:31:08;14.20;1.00
13470;DHT22;6807;48.682;9.032;2023-05-10T11:33:42;14.40;13.30
13470;DHT22;6807;48.682;9.032;2023-05-10T11:36:11;14.60;40.40
13470;DHT22;6807;48.682;9.032;2023-05-10T11:38:40;15.20;1.00
13470;DHT22;6807;48.682;9.032;2023-05-10T11:41:08;15.70;1.00
13470;DHT22;6807;48.682;9.032;2023-05-10T11:43:37;15.90;1.00
13470;DHT22;6807;48.682;9.032;2023-05-10T11:46:05;15.40;1.00
13470;DHT22;6807;48.682;9.032;2023-05-10T11:48:33;15.90;1.00
13470;DHT22;6807;48.682;9.032;2023-05-10T11:51:01;16.40;1.00
13470;DHT22;6807;48.682;9.032;2023-05-10T11:53:31;16.70;1.00
13470;DHT22;6807;48.682;9.032;2023-05-10T11:56:05;16.70;1.00
13470;DHT22;6807;48.682;9.032;2023-05-10T11:58:32;16.90;1.00
13470;DHT22;6807;48.682;9.032;2023-05-10T12:01:00;17.10;1.00
13470;DHT22;6807;48.682;9.032;2023-05-10T12:03:28;16.80;1.00
13470;DHT22;6807;48.682;9.032;2023-05-10T12:05:56;16.90;1.00
13470;DHT22;6807;48.682;9.032;2023-05-10T12:08:26;17.40;1.00
13470;DHT22;6807;48.682;9.032;2023-05-10T12:11:05;16.80;1.00
13470;DHT22;6807;48.682;9.032;2023-05-10T12:13:37;16.30;1.00
13470;DHT22;6807;48.682;9.032;2023-05-10T12:16:16;16.10;1.00
13470;DHT22;6807;48.682;9.032;2023-05-10T12:18:43;15.80;1.00
13470;DHT22;6807;48.682;9.032;2023-05-10T12:21:11;15.60;1.00
13470;DHT22;6807;48.682;9.032;2023-05-10T12:23:45;15.60;1.00
13470;DHT22;6807;48.682;9.032;2023-05-10T12:26:14;14.50;1.00
13470;DHT22;6807;48.682;9.032;2023-05-10T12:28:47;15.40;1.00
13470;DHT22;6807;48.682;9.032;2023-05-10T12:31:15;15.40;1.00
13470;DHT22;6807;48.682;9.032;2023-05-10T12:33:45;15.20;1.00
13470;DHT22;6807;48.682;9.032;2023-05-10T12:36:14;15.50;1.00
13470;DHT22;6807;48.682;9.032;2023-05-10T12:38:43;15.70;1.00
13470;DHT22;6807;48.682;9.032;2023-05-10T12:41:16;15.20;1.00
13470;DHT22;6807;48.682;9.032;2023-05-10T12:43:43;15.10;1.00
13470;DHT22;6807;48.682;9.032;2023-05-10T12:46:12;15.10;1.00
13470;DHT22;6807;48.682;9.032;2023-05-10T12:48:41;15.40;1.00
13470;DHT22;6807;48.682;9.032;2023-05-10T12:51:09;15.80;1.00
13470;DHT22;6807;48.682;9.032;2023-05-10T12:53:38;15.90;1.00
13470;DHT22;6807;48.682;9.032;2023-05-10T12:56:06;16.00;1.00
13470;DHT22;6807;48.682;9.032;2023-05-10T12:58:35;16.30;1.00
13470;DHT22;6807;48.682;9.032;2023-05-10T13:01:02;16.00;1.00
13470;DHT22;6807;48.682;9.032;2023-05-10T13:03:30;15.80;1.00
13470;DHT22;6807;48.682;9.032;2023-05-10T13:05:57;15.80;1.00
13470;DHT22;6807;48.682;9.032;2023-05-10T13:08:24;16.10;1.00
13470;DHT22;6807;48.682;9.032;2023-05-10T13:10:51;16.40;1.00
13470;DHT22;6807;48.682;9.032;2023-05-10T13:13:18;16.20;1.00
13470;DHT22;6807;48.682;9.032;2023-05-10T13:15:47;16.10;1.00
13470;DHT22;6807;48.682;9.032;2023-05-10T13:18:14;16.40;1.00
13470;DHT22;6807;48.682;9.032;2023-05-10T13:20:41;16.40;1.00
13470;DHT22;6807;48.682;9.032;2023-05-10T13:23:09;16.10;1.00
13470;DHT22;6807;48.682;9.032;2023-05-10T13:25:37;16.30;1.00
13470;DHT22;6807;48.682;9.032;2023-05-10T13:28:04;16.30;1.00
13470;DHT22;6807;48.682;9.032;2023-05-10T13:30:31;16.20;1.00
13470;DHT22;6807;48.682;9.032;2023-05-10T13:33:00;15.90;1.00
13470;DHT22;6807;48.682;9.032;2023-05-10T13:35:27;16.20;1.00
13470;DHT22;6807;48.682;9.032;2023-05-10T13:37:54;16.00;1.00
13470;DHT22;6807;48.682;9.032;2023-05-10T13:40:23;16.40;1.00
13470;DHT22;6807;48.682;9.032;2023-05-10T13:42:50;16.50;1.00
13470;DHT22;6807;48.682;9.032;2023-05-10T13:45:18;16.70;1.00
13470;DHT22;6807;48.682;9.032;2023-05-10T13:47:46;16.80;1.00
13470;DHT22;6807;48.682;9.032;2023-05-10T13:50:15;16.70;1.00
13470;DHT22;6807;48.682;9.032;2023-05-10T13:52:42;16.70;1.00
13470;DHT22;6807;48.682;9.032;2023-05-10T13:55:13;16.30;1.00
13470;DHT22;6807;48.682;9.032;2023-05-10T13:57:48;16.30;1.00
13470;DHT22;6807;48.682;9.032;2023-05-10T14:00:16;15.90;1.00
13470;DHT22;6807;48.682;9.032;2023-05-10T14:02:49;15.60;1.00
13470;DHT22;6807;48.682;9.032;2023-05-10T14:05:18;16.00;1.00
13470;DHT22;6807;48.682;9.032;2023-05-10T14:07:47;16.10;1.00
13470;DHT22;6807;48.682;9.032;2023-05-10T14:10:15;16.00;1.00
13470;DHT22;6807;48.682;9.032;2023-05-10T14:12:42;16.00;1.00
13470;DHT22;6807;48.682;9.032;2023-05-10T14:15:10;16.20;1.00
13470;DHT22;6807;48.682;9.032;2023-05-10T14:17:37;16.00;1.00
13470;DHT22;6807;48.682;9.032;2023-05-10T14:20:05;16.20;1.00
13470;DHT22;6807;48.682;9.032;2023-05-10T14:22:35;16.30;1.00
13470;DHT22;6807;48.682;9.032;2023-05-10T14:25:06;16.20;1.00
13470;DHT22;6807;48.682;9.032;2023-05-10T14:27:34;16.60;1.00
13470;DHT22;6807;48.682;9.032;2023-05-10T14:30:02;16.40;1.00
13470;DHT22;6807;48.682;9.032;2023-05-10T15:17:06;16.50;1.00
13470;DHT22;6807;48.682;9.032;2023-05-10T17:10:18;13.60;1.00
13470;DHT22;6807;48.682;9.032;2023-05-10T20:15:18;11.60;99.90
